Airfield :







YOU CAN JOIN US ON...

 
LOGIN :

Register | Disclaimer

   EN    FR    IT 

 









Legend :    VFR   Marginal VFR   IFR   Intensive IFR   Very Intensive IFR
Visi :
Ceiling :
>= 8 km
>= 3000ft
5 to 8 km
1000 to 3000 ft
1500m to 5 km
500 to 1000 ft
800 to 1500m
200 to 500 ft
< 800m
< 200 ft
Symbols :   Thunderstorms  Fog  Heavy snow  Heavy precipitations  Wind > 20 kt






- Airport Elevation : 193 ft
- IATA code : ZBF


CZBF - Bathurst

CURRENT METAR :
  • 221200Z AUTO 11003KT 9SM SCT010 OVC019 11/10 A2984 RMK SLP108

EXPIRED METARs :
  • 221100Z AUTO 17002KT 9SM BKN010 OVC021 11/10 A2985 RMK SLP112
  • 221000Z AUTO 17002KT 9SM BKN012 OVC023 10/10 A2985 RMK SLP112

TAF TAF CZBF
Valid from the 22 at 09:00 until the 22 at 21:00 UTC


220838Z 2209/2221 VRB03KT P6SM OVC025
TEMPO 2209/2212 3SM BR BKN006 OVC020
BECMG 2209/2211 16008KT
FM221500 15012KT P6SM -SHRA SCT015 OVC040
TEMPO 2215/2221 4SM -SHRA BR BKN006 OVC015 RMK FCST BASED ON AUTO OBS. NXT FCST BY 221400Z
CZQM FIR / North America



MET'MAP, your aeronautical weather chart ! - Copyright ORBIFLY December 2007 - Disclaimer

ORBIFLY MET'MAP TEAM :

Programming & Development : Alexandra Zaïnal
Concept & original design : Baudouin d'Aumeries
Assistance for programming : Marc-Olivier Méhu
Technical & hardware support : Manuel Goepfert

Contact : metmap@orbifly.com




SOURCES & CREDITS :

   NOAA